Cut Bank Municipal Airport
KCTB : now visible

Airfield :











YOU CAN JOIN US ON...

 
LOGIN :

Register | Disclaimer

   EN    FR    IT 

 









Legend :    VFR   Marginal VFR   IFR   Intensive IFR   Very Intensive IFR
Visi :
Ceiling :
>= 8 km
>= 3000ft
5 to 8 km
1000 to 3000 ft
1500m to 5 km
500 to 1000 ft
800 to 1500m
200 to 500 ft
< 800m
< 200 ft
Symbols :   Thunderstorms  Fog  Heavy snow  Heavy precipitations  Wind > 20 kt






- Airport Elevation : 3854 ft


KCTB - Cut Bank Municipal

CURRENT METAR :
  • 041856Z AUTO VRB03KT 10SM CLR 24/04 A3012 RMK AO2 SLP175 T02440039

EXPIRED METARs :
  • 041756Z AUTO VRB03KT 10SM CLR 25/04 A3013 RMK AO2 SLP175 T02500039 10256 20078 58005
  • 041656Z AUTO 00000KT 10SM CLR 23/05 A3014 RMK AO2 SLP175 T02330050

TAF KCTB
Valid from the 04 at 18:00 until the 05 at 18:00 UTC


041737Z 0418/0518 13008KT P6SM SKC
KZLC FIR / North America



MET'MAP, your aeronautical weather chart ! - Copyright ORBIFLY December 2007 - Disclaimer

ORBIFLY MET'MAP TEAM :

Programming & Development : Alexandra Zaïnal
Concept & original design : Baudouin d'Aumeries
Assistance for programming : Marc-Olivier Méhu
Technical & hardware support : Manuel Goepfert

Contact : metmap@orbifly.com




SOURCES & CREDITS :

   NOAA       Earth
Advisory